createdAt,value
2018-11-10T00:00:42.836Z,19.80
2018-11-10T00:01:48.302Z,19.83
2018-11-10T00:02:54.235Z,18.90
2018-11-10T00:03:59.725Z,20.20
2018-11-10T00:05:06.127Z,18.90
2018-11-10T00:06:11.605Z,20.77
2018-11-10T00:07:17.188Z,18.83
2018-11-10T00:08:22.718Z,19.57
2018-11-10T00:09:28.091Z,19.07
2018-11-10T00:10:33.525Z,18.70
2018-11-10T00:11:38.919Z,19.30
2018-11-10T00:12:44.388Z,19.60
2018-11-10T00:13:49.881Z,19.03
2018-11-10T00:14:55.372Z,19.33
2018-11-10T00:16:00.757Z,19.00
2018-11-10T00:17:06.948Z,19.97
2018-11-10T00:18:12.424Z,19.50
2018-11-10T00:19:17.895Z,18.10
2018-11-10T00:20:23.348Z,19.80
2018-11-10T00:21:28.858Z,19.60
2018-11-10T00:22:34.277Z,20.03
2018-11-10T00:23:39.890Z,19.10
2018-11-10T00:24:45.385Z,17.83
2018-11-10T00:25:50.818Z,18.30
2018-11-10T00:26:56.188Z,20.13
2018-11-10T00:28:01.599Z,18.57
2018-11-10T00:29:07.486Z,18.70
2018-11-10T00:30:14.047Z,18.80
2018-11-10T00:31:19.568Z,19.63
2018-11-10T00:32:25.084Z,20.30
2018-11-10T00:33:30.525Z,19.90
2018-11-10T00:34:36.050Z,19.50
2018-11-10T00:35:41.465Z,19.00
2018-11-10T00:36:46.906Z,18.90
2018-11-10T00:37:52.328Z,19.37
2018-11-10T00:38:57.825Z,20.30
2018-11-10T00:40:03.322Z,19.67
2018-11-10T00:41:08.770Z,18.80
2018-11-10T00:42:14.240Z,20.20
2018-11-10T00:43:19.906Z,20.37
2018-11-10T00:44:25.370Z,19.67
2018-11-10T00:45:30.824Z,20.57
2018-11-10T00:46:36.253Z,20.53
2018-11-10T00:47:41.778Z,19.50
2018-11-10T00:48:47.172Z,19.67
2018-11-10T00:49:52.604Z,19.70
2018-11-10T00:50:58.147Z,20.70
2018-11-10T00:52:03.714Z,21.00
2018-11-10T00:53:09.177Z,20.33
2018-11-10T00:54:14.689Z,20.17
2018-11-10T00:55:20.154Z,20.60
2018-11-10T00:56:25.652Z,19.83
2018-11-10T00:57:31.124Z,21.60
2018-11-10T00:58:36.580Z,20.27
2018-11-10T00:59:42.022Z,21.50
2018-11-10T01:00:47.471Z,20.57
2018-11-10T01:01:53.006Z,20.90
2018-11-10T01:02:58.525Z,20.20
2018-11-10T01:04:04.021Z,20.73
2018-11-10T01:05:09.585Z,23.00
2018-11-10T01:06:15.058Z,20.23
2018-11-10T01:07:20.518Z,20.60
2018-11-10T01:08:25.960Z,20.50
2018-11-10T01:09:31.396Z,19.87
2018-11-10T01:10:36.853Z,21.77
2018-11-10T01:11:42.244Z,20.00
2018-11-10T01:12:47.709Z,21.03
2018-11-10T01:13:53.189Z,20.10
2018-11-10T01:14:58.644Z,19.97
2018-11-10T01:16:04.201Z,21.40
2018-11-10T01:17:09.647Z,21.00
2018-11-10T01:18:15.128Z,20.67
2018-11-10T01:19:20.573Z,20.20
2018-11-10T01:20:26.074Z,19.60
2018-11-10T01:21:31.461Z,21.40
2018-11-10T01:22:36.957Z,20.20
2018-11-10T01:23:42.378Z,20.40
2018-11-10T01:24:47.821Z,20.33
2018-11-10T01:25:53.220Z,20.20
2018-11-10T01:26:58.739Z,19.93
2018-11-10T01:28:04.299Z,19.80
2018-11-10T01:29:09.679Z,20.27
2018-11-10T01:30:16.316Z,20.67
2018-11-10T01:31:21.956Z,20.43
2018-11-10T01:32:27.676Z,20.20
2018-11-10T01:33:33.104Z,19.73
2018-11-10T01:34:38.542Z,20.40
2018-11-10T01:35:43.980Z,19.63
2018-11-10T01:36:49.443Z,18.03
2018-11-10T01:37:54.897Z,20.00
2018-11-10T01:39:01.855Z,19.00
2018-11-10T01:40:09.825Z,18.63
2018-11-10T01:41:15.245Z,20.43
2018-11-10T01:42:20.656Z,19.33
2018-11-10T01:43:26.106Z,19.73
2018-11-10T01:44:31.861Z,20.07
2018-11-10T01:45:37.260Z,19.93
2018-11-10T01:46:42.705Z,20.37
2018-11-10T01:47:48.365Z,20.23
2018-11-10T01:48:53.918Z,20.77
2018-11-10T01:49:59.441Z,18.80
2018-11-10T01:51:05.442Z,20.40
2018-11-10T01:52:11.444Z,19.37
2018-11-10T01:53:16.848Z,19.00
2018-11-10T01:54:22.430Z,21.10
2018-11-10T01:55:27.844Z,18.30
2018-11-10T01:56:33.271Z,20.20
2018-11-10T01:57:38.952Z,20.03
2018-11-10T01:58:44.320Z,20.10
2018-11-10T01:59:49.785Z,20.50
2018-11-10T02:00:55.224Z,20.50
2018-11-10T02:02:00.714Z,20.73
2018-11-10T02:03:06.524Z,19.80
2018-11-10T02:04:12.008Z,20.83
2018-11-10T02:05:18.025Z,19.57
2018-11-10T02:06:23.465Z,21.23
2018-11-10T02:07:28.904Z,20.57
2018-11-10T02:08:34.328Z,21.60
2018-11-10T02:09:39.777Z,19.43
2018-11-10T02:10:45.189Z,19.73
2018-11-10T02:11:50.670Z,18.93
2018-11-10T02:12:56.166Z,20.67
2018-11-10T02:14:01.676Z,20.20
2018-11-10T02:15:09.869Z,17.67
2018-11-10T02:16:15.298Z,20.33
2018-11-10T02:17:20.729Z,19.67
2018-11-10T02:18:26.150Z,21.10
2018-11-10T02:19:31.664Z,19.03
2018-11-10T02:20:37.234Z,18.77
2018-11-10T02:21:42.759Z,19.53
2018-11-10T02:22:48.220Z,20.10
2018-11-10T02:23:53.737Z,19.23
2018-11-10T02:24:59.208Z,20.80
2018-11-10T02:26:04.956Z,20.50
2018-11-10T02:27:15.546Z,18.63
2018-11-10T02:28:21.077Z,21.53
2018-11-10T02:29:26.529Z,19.60
2018-11-10T02:30:31.984Z,20.20
2018-11-10T02:31:37.421Z,21.40
2018-11-10T02:32:43.155Z,19.67
2018-11-10T02:33:48.760Z,21.00
2018-11-10T02:34:54.527Z,18.70
2018-11-10T02:35:59.936Z,18.60
2018-11-10T02:37:05.789Z,19.90
2018-11-10T02:38:11.252Z,20.90
2018-11-10T02:39:16.766Z,19.20
2018-11-10T02:40:22.261Z,19.37
2018-11-10T02:41:27.714Z,19.33
2018-11-10T02:42:33.140Z,19.80
2018-11-10T02:43:38.616Z,20.53
2018-11-10T02:44:44.054Z,19.80
2018-11-10T02:45:49.532Z,19.60
2018-11-10T02:46:55.108Z,20.27
2018-11-10T02:48:00.537Z,20.43
2018-11-10T02:49:06.525Z,21.27
2018-11-10T02:50:11.992Z,20.10
2018-11-10T02:51:17.486Z,19.60
2018-11-10T02:52:22.900Z,21.67
2018-11-10T02:53:28.445Z,19.10
2018-11-10T02:54:34.066Z,20.00
2018-11-10T02:55:39.522Z,19.90
2018-11-10T02:56:44.956Z,20.30
2018-11-10T02:57:50.384Z,19.57
2018-11-10T02:58:55.773Z,19.20
2018-11-10T03:00:01.199Z,21.30
2018-11-10T03:01:06.720Z,20.30
2018-11-10T03:02:12.214Z,18.90
2018-11-10T03:03:17.682Z,19.97
2018-11-10T03:04:23.298Z,20.93
2018-11-10T03:05:28.688Z,19.60
2018-11-10T03:06:34.142Z,20.40
2018-11-10T03:07:40.052Z,21.10
2018-11-10T03:08:45.473Z,18.63
2018-11-10T03:09:50.912Z,20.27
2018-11-10T03:10:56.374Z,20.07
2018-11-10T03:12:01.733Z,20.20
2018-11-10T03:13:07.512Z,20.37
2018-11-10T03:14:12.917Z,19.30
2018-11-10T03:15:18.385Z,18.70
2018-11-10T03:16:23.832Z,18.37
2018-11-10T03:17:29.318Z,19.47
2018-11-10T03:18:34.818Z,19.87
2018-11-10T03:19:40.373Z,20.83
2018-11-10T03:20:45.794Z,20.27
2018-11-10T03:21:51.346Z,19.20
2018-11-10T03:22:56.925Z,19.33
2018-11-10T03:24:02.357Z,20.40
2018-11-10T03:25:07.878Z,20.47
2018-11-10T03:26:13.343Z,20.73
2018-11-10T03:27:18.865Z,20.07
2018-11-10T03:28:24.562Z,19.27
2018-11-10T03:29:30.003Z,20.37
2018-11-10T03:30:35.478Z,20.60
2018-11-10T03:31:41.017Z,19.00
2018-11-10T03:32:46.429Z,19.93
2018-11-10T03:33:51.925Z,18.57
2018-11-10T03:34:57.360Z,17.93
2018-11-10T03:36:02.789Z,18.40
2018-11-10T03:37:08.252Z,19.77
2018-11-10T03:38:13.726Z,18.67
2018-11-10T03:39:19.343Z,18.40
2018-11-10T03:40:24.836Z,19.30
2018-11-10T03:41:30.262Z,20.20
2018-11-10T03:42:35.723Z,19.00
2018-11-10T03:43:41.172Z,20.03
2018-11-10T03:44:46.600Z,19.10
2018-11-10T03:45:52.012Z,20.17
2018-11-10T03:46:57.472Z,18.10
2018-11-10T03:48:02.961Z,18.80
2018-11-10T03:49:08.409Z,18.13
2018-11-10T03:50:13.964Z,19.20
2018-11-10T03:51:19.364Z,18.17
2018-11-10T03:52:24.816Z,18.80
2018-11-10T03:53:30.269Z,18.83
2018-11-10T03:54:35.673Z,18.80
2018-11-10T03:55:41.105Z,19.40
2018-11-10T03:56:46.505Z,21.40
2018-11-10T03:57:51.917Z,18.13
2018-11-10T03:58:57.387Z,20.90
2018-11-10T04:00:02.872Z,18.50
2018-11-10T04:01:08.762Z,18.83
2018-11-10T04:02:14.253Z,19.37
2018-11-10T04:03:19.738Z,18.60
2018-11-10T04:04:25.126Z,18.17
2018-11-10T04:05:30.605Z,19.80
2018-11-10T04:06:36.030Z,20.07
2018-11-10T04:07:42.425Z,18.60
2018-11-10T04:08:47.913Z,18.67
2018-11-10T04:09:57.860Z,18.90
2018-11-10T04:11:04.277Z,17.53
2018-11-10T04:12:09.736Z,19.23
2018-11-10T04:13:15.196Z,17.73
2018-11-10T04:14:20.926Z,16.60
2018-11-10T04:15:26.404Z,16.20
2018-11-10T04:16:31.945Z,18.33
2018-11-10T04:17:37.594Z,18.43
2018-11-10T04:18:43.056Z,19.27
2018-11-10T04:19:48.488Z,19.40
2018-11-10T04:20:53.936Z,18.90
2018-11-10T04:21:59.413Z,18.50
2018-11-10T04:23:05.310Z,17.20
2018-11-10T04:24:10.837Z,16.87
2018-11-10T04:25:16.240Z,18.43
2018-11-10T04:26:21.738Z,17.00
2018-11-10T04:27:27.324Z,17.33
2018-11-10T04:28:32.716Z,18.87
2018-11-10T04:29:38.168Z,17.80
2018-11-10T04:30:43.606Z,18.50
2018-11-10T04:31:49.149Z,17.53
2018-11-10T04:32:54.604Z,17.97
2018-11-10T04:34:00.077Z,17.00
2018-11-10T04:35:06.399Z,18.67
2018-11-10T04:36:11.838Z,18.43
2018-11-10T04:37:17.302Z,18.00
2018-11-10T04:38:22.721Z,18.10
2018-11-10T04:39:28.189Z,18.17
2018-11-10T04:40:33.641Z,19.03
2018-11-10T04:41:39.069Z,18.00
2018-11-10T04:42:44.493Z,18.97
2018-11-10T04:43:49.992Z,18.37
2018-11-10T04:44:55.459Z,16.13
2018-11-10T04:46:00.993Z,17.80
2018-11-10T04:47:06.597Z,17.60
2018-11-10T04:48:12.001Z,18.77
2018-11-10T04:49:17.459Z,18.87
2018-11-10T04:50:22.849Z,18.90
2018-11-10T04:51:28.350Z,18.00
2018-11-10T04:52:33.894Z,16.70
2018-11-10T04:53:39.409Z,19.33
2018-11-10T04:54:44.838Z,17.70
2018-11-10T04:55:50.291Z,18.37
2018-11-10T04:56:55.817Z,17.73
2018-11-10T04:58:01.205Z,17.40
2018-11-10T04:59:06.628Z,16.40
2018-11-10T05:00:15.821Z,17.00
2018-11-10T05:01:21.343Z,17.97
2018-11-10T05:02:26.806Z,16.90
2018-11-10T05:03:32.221Z,16.47
2018-11-10T05:04:37.669Z,18.90
2018-11-10T05:05:43.269Z,18.20
2018-11-10T05:06:48.814Z,17.60
2018-11-10T05:07:54.283Z,18.03
2018-11-10T05:08:59.672Z,17.37
2018-11-10T05:10:05.906Z,18.80
2018-11-10T05:11:11.346Z,16.77
2018-11-10T05:12:16.838Z,19.10
2018-11-10T05:13:22.388Z,16.87
2018-11-10T05:14:28.323Z,16.77
2018-11-10T05:15:33.712Z,17.70
2018-11-10T05:16:39.120Z,18.10
2018-11-10T05:17:44.592Z,18.20
2018-11-10T05:18:50.064Z,16.07
2018-11-10T05:19:55.618Z,18.23
2018-11-10T05:21:01.021Z,17.90
2018-11-10T05:22:06.480Z,15.00
2018-11-10T05:23:11.894Z,17.80
2018-11-10T05:24:17.557Z,17.77
2018-11-10T05:25:22.998Z,16.67
2018-11-10T05:26:28.516Z,16.17
2018-11-10T05:27:33.908Z,16.87
2018-11-10T05:28:39.328Z,16.47
2018-11-10T05:29:44.787Z,16.60
2018-11-10T05:30:50.219Z,16.80
2018-11-10T05:31:55.721Z,16.23
2018-11-10T05:33:01.125Z,16.70
2018-11-10T05:34:07.227Z,16.30
2018-11-10T05:35:12.725Z,18.97
2018-11-10T05:36:18.211Z,18.87
2018-11-10T05:37:23.726Z,16.70
2018-11-10T05:38:29.177Z,15.60
2018-11-10T05:39:34.617Z,15.60
2018-11-10T05:40:40.045Z,16.60
2018-11-10T05:41:45.449Z,16.67
2018-11-10T05:42:50.869Z,17.10
2018-11-10T05:43:56.298Z,15.83
2018-11-10T05:45:01.697Z,16.07
2018-11-10T05:46:07.601Z,16.73
2018-11-10T05:47:13.119Z,14.77
2018-11-10T05:48:18.598Z,16.87
2018-11-10T05:49:23.972Z,17.13
2018-11-10T05:50:29.403Z,17.10
2018-11-10T05:51:34.849Z,15.00
2018-11-10T05:52:40.271Z,16.70
2018-11-10T05:53:45.908Z,16.07
2018-11-10T05:54:51.333Z,14.60
2018-11-10T05:55:56.776Z,16.97
2018-11-10T05:57:02.290Z,15.53
2018-11-10T05:58:07.665Z,14.70
2018-11-10T05:59:13.158Z,18.20
2018-11-10T06:00:18.730Z,17.20
2018-11-10T06:01:24.149Z,15.83
2018-11-10T06:02:29.652Z,16.00
2018-11-10T06:03:35.084Z,16.63
2018-11-10T06:04:40.497Z,15.53
2018-11-10T06:05:46.007Z,16.57
2018-11-10T06:06:51.502Z,16.40
2018-11-10T06:07:56.937Z,16.60
2018-11-10T06:09:02.445Z,15.80
2018-11-10T06:10:09.561Z,15.90
2018-11-10T06:11:14.848Z,16.53
2018-11-10T06:12:20.346Z,14.67
2018-11-10T06:13:25.865Z,15.50
2018-11-10T06:14:31.332Z,16.87
2018-11-10T06:15:36.783Z,15.37
2018-11-10T06:16:42.245Z,15.67
2018-11-10T06:17:47.642Z,14.23
2018-11-10T06:18:53.312Z,14.07
2018-11-10T06:19:58.744Z,14.20
2018-11-10T06:21:04.224Z,14.77
2018-11-10T06:22:09.744Z,16.40
2018-11-10T06:23:15.197Z,15.43
2018-11-10T06:24:20.632Z,15.40
2018-11-10T06:25:26.086Z,15.60
2018-11-10T06:26:31.551Z,16.10
2018-11-10T06:27:36.993Z,15.20
2018-11-10T06:28:42.465Z,17.07
2018-11-10T06:29:47.884Z,16.60
2018-11-10T06:30:53.510Z,15.77
2018-11-10T06:31:58.970Z,15.93
2018-11-10T06:33:04.506Z,16.03
2018-11-10T06:34:10.033Z,16.00
2018-11-10T06:35:15.474Z,17.60
2018-11-10T06:36:21.028Z,15.83
2018-11-10T06:37:26.419Z,15.83
2018-11-10T06:38:31.817Z,16.17
2018-11-10T06:39:37.292Z,16.60
2018-11-10T06:40:42.754Z,16.50
2018-11-10T06:41:48.261Z,15.83
2018-11-10T06:42:53.705Z,16.43
2018-11-10T06:43:59.140Z,16.50
2018-11-10T06:45:05.425Z,16.37
2018-11-10T06:46:10.876Z,15.13
2018-11-10T06:47:16.373Z,17.07
2018-11-10T06:48:21.689Z,16.37
2018-11-10T06:49:27.121Z,15.93
2018-11-10T06:50:32.554Z,15.00
2018-11-10T06:51:37.963Z,14.73
2018-11-10T06:52:43.457Z,16.23
2018-11-10T06:53:48.898Z,15.97
2018-11-10T06:54:54.392Z,14.90
2018-11-10T06:55:59.792Z,15.43
2018-11-10T06:57:05.748Z,16.07
2018-11-10T06:58:11.267Z,16.80
2018-11-10T06:59:16.731Z,15.80
2018-11-10T07:00:22.121Z,14.87
2018-11-10T07:01:27.509Z,15.67
2018-11-10T07:02:33.021Z,15.50
2018-11-10T07:03:38.451Z,14.73
2018-11-10T07:04:43.878Z,14.30
2018-11-10T07:05:49.330Z,14.77
2018-11-10T07:06:54.787Z,14.00
2018-11-10T07:08:00.217Z,14.37
2018-11-10T07:09:09.713Z,14.43
2018-11-10T07:10:15.173Z,13.93
2018-11-10T07:11:20.581Z,14.20
2018-11-10T07:12:26.021Z,13.07
2018-11-10T07:13:31.538Z,12.20
2018-11-10T07:14:36.970Z,13.70
2018-11-10T07:15:42.413Z,12.57
2018-11-10T07:16:47.838Z,12.30
2018-11-10T07:17:53.292Z,13.40
2018-11-10T07:18:58.716Z,11.33
2018-11-10T07:20:04.349Z,12.60
2018-11-10T07:21:09.837Z,11.00
2018-11-10T07:22:15.240Z,14.57
2018-11-10T07:23:20.696Z,12.60
2018-11-10T07:24:26.179Z,11.27
2018-11-10T07:25:31.665Z,11.83
2018-11-10T07:26:37.170Z,11.03
2018-11-10T07:27:42.714Z,11.77
2018-11-10T07:28:48.168Z,11.30
2018-11-10T07:29:53.669Z,10.60
2018-11-10T07:30:59.202Z,10.80
2018-11-10T07:32:04.758Z,11.97
2018-11-10T07:33:10.176Z,10.33
2018-11-10T07:34:15.649Z,10.53
2018-11-10T07:35:21.255Z,9.43
2018-11-10T07:36:26.736Z,9.43
2018-11-10T07:37:32.312Z,9.53
2018-11-10T07:38:37.691Z,9.57
2018-11-10T07:39:43.141Z,9.70
2018-11-10T07:40:48.688Z,8.40
2018-11-10T07:41:54.276Z,8.70
2018-11-10T07:42:59.756Z,9.33
2018-11-10T07:44:05.648Z,8.40
2018-11-10T07:45:14.581Z,9.50
2018-11-10T07:46:20.037Z,9.00
2018-11-10T07:47:25.464Z,8.27
2018-11-10T07:48:30.945Z,8.47
2018-11-10T07:49:36.529Z,8.70
2018-11-10T07:50:42.125Z,7.53
2018-11-10T07:51:47.598Z,7.97
2018-11-10T07:52:53.060Z,7.30
2018-11-10T07:53:58.437Z,7.50
2018-11-10T07:55:03.995Z,7.33
2018-11-10T07:56:09.722Z,7.00
2018-11-10T07:57:15.204Z,6.00
2018-11-10T07:58:20.672Z,6.10
2018-11-10T07:59:26.153Z,6.17
2018-11-10T08:00:31.622Z,6.57
2018-11-10T08:01:37.113Z,6.87
2018-11-10T08:02:42.714Z,5.60
2018-11-10T08:03:48.188Z,7.00
2018-11-10T08:04:53.611Z,6.03
2018-11-10T08:05:59.020Z,5.70
2018-11-10T08:07:04.516Z,5.63
2018-11-10T08:08:10.038Z,6.13
2018-11-10T08:09:15.740Z,5.00
2018-11-10T08:10:21.156Z,5.23
2018-11-10T08:11:26.617Z,6.00
2018-11-10T08:12:32.044Z,4.33
2018-11-10T08:13:37.552Z,4.27
2018-11-10T08:14:43.056Z,5.03
2018-11-10T08:15:48.595Z,4.37
2018-11-10T08:16:54.210Z,4.20
2018-11-10T08:17:59.643Z,4.53
2018-11-10T08:19:05.425Z,3.63
2018-11-10T08:20:11.533Z,4.33
2018-11-10T08:21:17.129Z,4.37
2018-11-10T08:22:22.613Z,4.20
2018-11-10T08:23:28.073Z,4.40
2018-11-10T08:24:33.484Z,4.70
2018-11-10T08:25:38.949Z,3.40
2018-11-10T08:26:44.378Z,3.43
2018-11-10T08:27:49.809Z,3.70
2018-11-10T08:28:55.237Z,3.80
2018-11-10T08:30:00.669Z,3.50
2018-11-10T08:31:06.379Z,3.60
2018-11-10T08:32:11.899Z,3.73
2018-11-10T08:33:17.538Z,3.57
2018-11-10T08:34:23.101Z,3.10
2018-11-10T08:35:28.829Z,3.90
2018-11-10T08:36:34.539Z,3.40
2018-11-10T08:37:40.060Z,3.27
2018-11-10T08:38:45.546Z,2.60
2018-11-10T08:39:51.065Z,3.40
2018-11-10T08:40:56.684Z,3.53
2018-11-10T08:42:02.128Z,2.90
2018-11-10T08:43:07.561Z,2.83
2018-11-10T08:44:13.063Z,3.27
2018-11-10T08:45:18.562Z,3.40
2018-11-10T08:46:24.451Z,2.87
2018-11-10T08:47:30.145Z,3.43
2018-11-10T08:48:35.556Z,3.20
2018-11-10T08:49:41.011Z,2.87
2018-11-10T08:50:46.580Z,3.43
2018-11-10T08:51:52.222Z,3.50
2018-11-10T08:52:58.009Z,3.40
2018-11-10T08:54:03.513Z,3.17
2018-11-10T08:55:10.006Z,2.70
2018-11-10T08:56:15.644Z,2.83
2018-11-10T08:57:21.283Z,3.20
2018-11-10T08:58:26.791Z,2.57
2018-11-10T08:59:32.370Z,3.27
2018-11-10T09:00:37.865Z,2.90
2018-11-10T09:01:43.395Z,3.00
2018-11-10T09:02:48.837Z,3.60
2018-11-10T09:03:54.433Z,3.00
2018-11-10T09:04:59.995Z,3.03
2018-11-10T09:06:05.760Z,3.40
2018-11-10T09:07:11.194Z,3.57
2018-11-10T09:08:16.664Z,3.03
2018-11-10T09:09:22.242Z,3.40
2018-11-10T09:10:27.734Z,2.97
2018-11-10T09:11:33.160Z,3.10
2018-11-10T09:12:38.892Z,3.30
2018-11-10T09:13:44.438Z,3.67
2018-11-10T09:14:50.008Z,2.70
2018-11-10T09:15:55.597Z,3.00
2018-11-10T09:17:01.137Z,3.10
2018-11-10T09:18:07.096Z,3.10
2018-11-10T09:19:12.748Z,3.50
2018-11-10T09:20:18.372Z,3.93
2018-11-10T09:21:23.936Z,3.17
2018-11-10T09:22:29.373Z,3.43
2018-11-10T09:23:34.934Z,3.73
2018-11-10T09:24:40.520Z,2.77
2018-11-10T09:25:45.941Z,3.90
2018-11-10T09:26:51.382Z,3.40
2018-11-10T09:27:56.824Z,2.93
2018-11-10T09:29:02.248Z,2.70
2018-11-10T09:30:09.661Z,3.10
2018-11-10T09:31:15.104Z,3.20
2018-11-10T09:32:20.562Z,2.50
2018-11-10T09:33:25.965Z,3.10
2018-11-10T09:34:31.442Z,3.20
2018-11-10T09:35:36.876Z,3.63
2018-11-10T09:36:42.376Z,3.30
2018-11-10T09:37:47.781Z,3.00
2018-11-10T09:38:53.275Z,3.20
2018-11-10T09:39:58.720Z,2.70
2018-11-10T09:41:04.256Z,2.73
2018-11-10T09:42:09.681Z,3.40
2018-11-10T09:43:15.096Z,3.27
2018-11-10T09:44:20.493Z,2.30
2018-11-10T09:45:25.965Z,3.17
2018-11-10T09:46:31.552Z,2.97
2018-11-10T09:47:37.337Z,3.70
2018-11-10T09:48:42.910Z,2.90
2018-11-10T09:49:48.416Z,3.60
2018-11-10T09:50:53.939Z,2.80
2018-11-10T09:51:59.365Z,3.43
2018-11-10T09:53:04.921Z,3.87
2018-11-10T09:54:10.353Z,3.10
2018-11-10T09:55:16.353Z,3.93
2018-11-10T09:56:21.853Z,3.30
2018-11-10T09:57:27.662Z,2.80
2018-11-10T09:58:33.134Z,2.87
2018-11-10T09:59:38.553Z,2.90
2018-11-10T10:00:44.028Z,3.03
2018-11-10T10:01:49.703Z,3.57
2018-11-10T10:02:55.121Z,3.30
2018-11-10T10:04:00.603Z,3.50
2018-11-10T10:05:07.258Z,3.13
2018-11-10T10:06:12.666Z,2.97
2018-11-10T10:07:18.100Z,3.07
2018-11-10T10:08:23.621Z,3.10
2018-11-10T10:09:29.052Z,3.73
2018-11-10T10:10:34.510Z,2.60
2018-11-10T10:11:40.651Z,3.93
2018-11-10T10:12:46.346Z,2.73
2018-11-10T10:13:51.852Z,2.93
2018-11-10T10:14:57.283Z,2.70
2018-11-10T10:16:02.836Z,3.47
2018-11-10T10:17:08.250Z,2.87
2018-11-10T10:18:13.656Z,3.10
2018-11-10T10:19:19.130Z,2.77
2018-11-10T10:20:24.580Z,3.10
2018-11-10T10:21:30.218Z,2.73
2018-11-10T10:22:35.696Z,2.93
2018-11-10T10:23:41.173Z,2.67
2018-11-10T10:24:46.587Z,2.73
2018-11-10T10:25:52.082Z,3.00
2018-11-10T10:26:57.688Z,2.40
2018-11-10T10:28:03.170Z,2.90
2018-11-10T10:29:08.652Z,3.20
2018-11-10T10:30:17.837Z,2.63
2018-11-10T10:31:23.257Z,2.67
2018-11-10T10:32:28.796Z,2.47
2018-11-10T10:33:34.242Z,2.80
2018-11-10T10:34:40.024Z,2.50
2018-11-10T10:35:45.204Z,3.10
2018-11-10T10:36:50.696Z,2.60
2018-11-10T10:37:56.252Z,3.13
2018-11-10T10:39:01.699Z,2.70
2018-11-10T10:40:09.400Z,3.20
2018-11-10T10:41:14.841Z,3.50
2018-11-10T10:42:20.400Z,3.47
2018-11-10T10:43:25.832Z,3.07
2018-11-10T10:44:31.382Z,3.17
2018-11-10T10:45:36.877Z,4.13
2018-11-10T10:46:42.281Z,3.50
2018-11-10T10:47:47.672Z,3.43
2018-11-10T10:48:53.233Z,3.27
2018-11-10T10:49:58.671Z,4.73
2018-11-10T10:51:04.237Z,3.60
2018-11-10T10:52:09.670Z,3.90
2018-11-10T10:53:15.149Z,3.50
2018-11-10T10:54:20.797Z,3.47
2018-11-10T10:55:26.209Z,3.73
2018-11-10T10:56:31.855Z,3.40
2018-11-10T10:57:37.218Z,3.77
2018-11-10T10:58:42.634Z,3.43
2018-11-10T10:59:48.126Z,2.90
2018-11-10T11:00:58.852Z,3.87
2018-11-10T11:02:09.518Z,3.43
2018-11-10T11:03:20.099Z,3.73
2018-11-10T11:04:30.773Z,3.97
2018-11-10T11:05:43.459Z,3.83
2018-11-10T11:06:48.899Z,3.40
2018-11-10T11:07:54.868Z,4.10
2018-11-10T11:09:00.326Z,3.40
2018-11-10T11:10:06.963Z,3.30
2018-11-10T11:11:12.632Z,3.80
2018-11-10T11:12:18.140Z,4.20
2018-11-10T11:13:23.572Z,4.10
2018-11-10T11:14:28.994Z,3.87
2018-11-10T11:15:34.655Z,3.73
2018-11-10T11:16:39.956Z,4.10
2018-11-10T11:17:45.426Z,3.80
2018-11-10T11:18:50.861Z,4.20
2018-11-10T11:19:56.326Z,3.60
2018-11-10T11:21:01.738Z,4.27
2018-11-10T11:22:07.710Z,4.10
2018-11-10T11:23:13.293Z,4.03
2018-11-10T11:24:18.849Z,3.60
2018-11-10T11:25:24.271Z,3.80
2018-11-10T11:26:29.744Z,3.47
2018-11-10T11:27:35.141Z,3.00
2018-11-10T11:28:40.686Z,3.80
2018-11-10T11:29:46.156Z,3.90
2018-11-10T11:30:51.657Z,3.80
2018-11-10T11:31:57.161Z,4.10
2018-11-10T11:33:02.581Z,3.40
2018-11-10T11:34:08.235Z,3.77
2018-11-10T11:35:14.248Z,3.70
2018-11-10T11:36:19.740Z,3.37
2018-11-10T11:37:25.178Z,3.00
2018-11-10T11:38:30.622Z,3.30
2018-11-10T11:39:36.110Z,3.93
2018-11-10T11:40:41.546Z,3.40
2018-11-10T11:41:47.116Z,4.07
2018-11-10T11:42:52.502Z,3.60
2018-11-10T11:43:57.929Z,3.20
2018-11-10T11:45:03.538Z,3.73
2018-11-10T11:46:08.978Z,3.33
2018-11-10T11:47:14.612Z,3.70
2018-11-10T11:48:20.154Z,3.67
2018-11-10T11:49:25.683Z,3.70
2018-11-10T11:50:31.126Z,3.77
2018-11-10T11:51:36.504Z,3.20
2018-11-10T11:52:42.562Z,3.40
2018-11-10T11:53:48.017Z,3.90
2018-11-10T11:54:53.433Z,3.30
2018-11-10T11:55:58.991Z,3.40
2018-11-10T11:57:04.444Z,4.20
2018-11-10T11:58:10.014Z,3.47
2018-11-10T11:59:15.300Z,2.90
2018-11-10T12:00:20.854Z,3.73
2018-11-10T12:01:27.045Z,3.97
2018-11-10T12:02:32.556Z,3.37
2018-11-10T12:03:37.983Z,2.87
2018-11-10T12:04:43.486Z,3.10
2018-11-10T12:05:48.849Z,3.60
2018-11-10T12:06:54.411Z,3.30
2018-11-10T12:07:59.857Z,3.60
2018-11-10T12:09:08.521Z,2.80
2018-11-10T12:10:15.080Z,3.03
2018-11-10T12:11:20.465Z,3.00
2018-11-10T12:12:25.956Z,3.57
2018-11-10T12:13:31.353Z,3.30
2018-11-10T12:14:36.795Z,3.83
2018-11-10T12:15:42.271Z,3.50
2018-11-10T12:16:47.818Z,3.60
2018-11-10T12:17:53.274Z,4.83
2018-11-10T12:18:58.755Z,4.00
2018-11-10T12:20:04.261Z,3.83
2018-11-10T12:21:09.760Z,3.57
2018-11-10T12:22:15.222Z,3.17
2018-11-10T12:23:20.669Z,3.17
2018-11-10T12:24:26.137Z,3.20
2018-11-10T12:25:31.618Z,2.80
2018-11-10T12:26:37.182Z,3.30
2018-11-10T12:27:43.340Z,3.17
2018-11-10T12:28:48.785Z,3.30
2018-11-10T12:29:54.358Z,3.30
2018-11-10T12:30:59.997Z,3.57
2018-11-10T12:32:05.577Z,3.70
2018-11-10T12:33:11.164Z,5.30
2018-11-10T12:34:16.742Z,3.50
2018-11-10T12:35:22.250Z,3.53
2018-11-10T12:36:27.778Z,2.90
2018-11-10T12:37:33.445Z,3.17
2018-11-10T12:38:39.102Z,3.50
2018-11-10T12:39:44.684Z,3.00
2018-11-10T12:40:50.226Z,4.20
2018-11-10T12:41:55.884Z,3.23
2018-11-10T12:43:01.406Z,2.70
2018-11-10T12:44:07.800Z,2.80
2018-11-10T12:45:14.180Z,3.27
2018-11-10T12:46:19.768Z,3.10
2018-11-10T12:47:25.264Z,3.20
2018-11-10T12:48:30.870Z,3.83
2018-11-10T12:49:36.400Z,3.73
2018-11-10T12:50:42.022Z,2.67
2018-11-10T12:51:47.573Z,3.17
2018-11-10T12:52:53.071Z,3.10
2018-11-10T12:53:58.609Z,3.37
2018-11-10T12:55:04.426Z,3.20
2018-11-10T12:56:09.965Z,3.50
2018-11-10T12:57:15.515Z,3.70
2018-11-10T12:58:21.101Z,2.93
2018-11-10T12:59:26.508Z,3.10
2018-11-10T13:00:32.102Z,3.00
2018-11-10T13:01:37.531Z,2.67
2018-11-10T13:02:43.432Z,3.30
2018-11-10T13:03:48.907Z,2.67
2018-11-10T13:04:54.464Z,3.20
2018-11-10T13:06:00.024Z,3.43
2018-11-10T13:07:05.923Z,2.70
2018-11-10T13:08:11.433Z,2.50
2018-11-10T13:09:16.964Z,3.20
2018-11-10T13:10:22.536Z,3.13
2018-11-10T13:11:28.186Z,2.30
2018-11-10T13:12:33.649Z,3.50
2018-11-10T13:13:39.045Z,2.97
2018-11-10T13:14:44.508Z,3.20
2018-11-10T13:15:50.301Z,2.87
2018-11-10T13:16:55.859Z,3.40
2018-11-10T13:18:01.389Z,3.07
2018-11-10T13:19:08.770Z,3.00
2018-11-10T13:20:15.485Z,2.70
2018-11-10T13:21:20.914Z,2.33
2018-11-10T13:22:26.518Z,2.73
2018-11-10T13:23:32.121Z,2.93
2018-11-10T13:24:37.563Z,3.00
2018-11-10T13:26:46.129Z,2.87
2018-11-10T13:27:51.943Z,3.17
2018-11-10T13:28:57.370Z,3.93
2018-11-10T13:30:03.044Z,3.20
2018-11-10T13:31:09.073Z,2.73
2018-11-10T13:32:14.517Z,3.37
2018-11-10T13:33:20.186Z,2.93
2018-11-10T13:34:26.484Z,3.33
2018-11-10T13:35:32.113Z,2.93
2018-11-10T13:36:37.678Z,2.87
2018-11-10T13:37:43.213Z,3.13
2018-11-10T13:38:48.757Z,2.93
2018-11-10T13:39:54.406Z,2.40
2018-11-10T13:40:59.985Z,2.83
2018-11-10T13:42:06.079Z,2.80
2018-11-10T13:43:11.622Z,2.67
2018-11-10T13:44:17.268Z,2.50
2018-11-10T13:45:22.637Z,2.70
2018-11-10T13:46:28.186Z,2.40
2018-11-10T13:47:33.738Z,3.00
2018-11-10T13:48:39.390Z,3.00
2018-11-10T13:49:45.026Z,2.90
2018-11-10T13:50:50.754Z,2.70
2018-11-10T13:51:56.528Z,2.40
2018-11-10T13:53:02.316Z,2.60
2018-11-10T13:54:07.460Z,2.27
2018-11-10T13:55:13.839Z,2.57
2018-11-10T13:56:19.421Z,2.30
2018-11-10T13:57:24.949Z,2.70
2018-11-10T13:58:30.547Z,2.20
2018-11-10T13:59:35.985Z,2.77
2018-11-10T14:00:41.547Z,2.77
2018-11-10T14:01:46.975Z,3.07
2018-11-10T14:02:52.387Z,2.33
2018-11-10T14:03:58.062Z,2.70
2018-11-10T14:05:03.704Z,2.50
2018-11-10T14:06:10.273Z,2.83
2018-11-10T14:07:15.846Z,2.70
2018-11-10T14:08:21.260Z,2.20
2018-11-10T14:09:26.682Z,1.90
2018-11-10T14:10:32.281Z,2.73
2018-11-10T14:11:38.028Z,2.20
2018-11-10T14:12:44.225Z,2.33
2018-11-10T14:13:49.519Z,2.40
2018-11-10T14:14:54.951Z,2.53
2018-11-10T14:16:00.430Z,2.00
2018-11-10T14:17:06.462Z,2.30
2018-11-10T14:18:12.059Z,2.40
2018-11-10T14:19:17.573Z,2.77